Check out our new BloomSky Weather System.

Active alerts


No alerts


Thunder radar  blitzortung!


Rain radar more information rain snow radar


Visit our other weather sites:

Template documentation
and downloads

And another site



Weather Underground History page Text

Daily Summary for October 14, 2017 Units:  English    Metric   Both
« Previous Day
Next Day »
Daily Weekly Monthly Yearly Custom
  High: Low: Average:
Temperature: 91.8 °F 70.7 °F 80.4 °F
Dew Point: 78.6 °F 70.2 °F 73.8 °F
Humidity: 100 % 59 % 82 %
Wind Speed: 7.0 mph 0.0 mph 1.6 mph
Wind Gust: 14.0 mph - -
Wind:- - ESE
Pressure: 30.07 in 29.94 in -
Precipitation: 0.00 in    
Historical Graphs
 
 
Tabular Data for October 14, 2017
Time Temperature Dew Point Pressure Wind Wind Speed Wind Gust Humidity Rainfall Rate (Hourly)
00:02 77.0 °F 73.6 °F 30.04 in Calm     89 % 0.00 in
00:07 76.8 °F 73.6 °F 30.04 in Calm     90 % 0.00 in
00:12 76.8 °F 73.6 °F 30.04 in Calm     90 % 0.00 in
00:17 76.6 °F 73.8 °F 30.04 in Calm     91 % 0.00 in
00:22 76.5 °F 73.6 °F 30.04 in Calm     91 % 0.00 in
00:27 76.3 °F 73.4 °F 30.04 in Calm     91 % 0.00 in
00:32 76.3 °F 73.4 °F 30.04 in Calm     91 % 0.00 in
00:37 75.9 °F 73.0 °F 30.04 in Calm     91 % 0.00 in
00:42 75.7 °F 72.9 °F 30.04 in Calm     91 % 0.00 in
00:47 75.6 °F 73.0 °F 30.04 in Calm     92 % 0.00 in
00:52 75.7 °F 73.6 °F 30.04 in Calm     93 % 0.00 in
00:57 75.7 °F 73.6 °F 30.03 in Calm     93 % 0.00 in
01:02 75.7 °F 73.6 °F 30.03 in Calm     93 % 0.00 in
01:07 75.7 °F 73.6 °F 30.03 in Calm     93 % 0.00 in
01:12 75.6 °F 73.4 °F 30.03 in Calm     93 % 0.00 in
01:17 75.6 °F 73.4 °F 30.03 in Calm     93 % 0.00 in
01:22 75.4 °F 73.6 °F 30.03 in Calm     94 % 0.00 in
01:23 75.4 °F 73.6 °F 30.03 in Calm     94 % 0.00 in
01:28 75.2 °F 73.4 °F 30.03 in Calm     94 % 0.00 in
01:33 75.0 °F 73.2 °F 30.03 in Calm     94 % 0.00 in
01:38 74.8 °F 73.0 °F 30.03 in Calm     94 % 0.00 in
01:43 74.8 °F 73.0 °F 30.03 in Calm     94 % 0.00 in
01:49 74.7 °F 72.9 °F 30.03 in Calm     94 % 0.00 in
01:50 74.7 °F 72.9 °F 30.03 in Calm     94 % 0.00 in
01:55 74.7 °F 73.2 °F 30.03 in Calm     95 % 0.00 in
02:00 74.5 °F 73.0 °F 30.03 in Calm     95 % 0.00 in
02:05 74.1 °F 72.7 °F 30.03 in Calm     95 % 0.00 in
02:10 74.1 °F 72.7 °F 30.04 in Calm     95 % 0.00 in
02:15 74.1 °F 72.7 °F 30.03 in Calm     95 % 0.00 in
02:20 74.1 °F 72.7 °F 30.03 in Calm     95 % 0.00 in
02:25 74.1 °F 72.9 °F 30.03 in Calm     96 % 0.00 in
02:30 73.9 °F 72.7 °F 30.03 in Calm     96 % 0.00 in
02:35 73.9 °F 72.7 °F 30.03 in Calm     96 % 0.00 in
02:40 73.9 °F 72.7 °F 30.03 in Calm     96 % 0.00 in
02:41 73.8 °F 72.5 °F 30.03 in Calm     96 % 0.00 in
02:46 73.8 °F 72.5 °F 30.03 in Calm     96 % 0.00 in
02:51 73.6 °F 72.3 °F 30.03 in Calm     96 % 0.00 in
02:56 73.6 °F 72.3 °F 30.04 in Calm     96 % 0.00 in
03:01 73.6 °F 72.3 °F 30.03 in Calm     96 % 0.00 in
03:07 73.6 °F 72.3 °F 30.03 in Calm     96 % 0.00 in
03:12 73.6 °F 72.3 °F 30.03 in Calm     96 % 0.00 in
03:17 73.4 °F 72.1 °F 30.03 in Calm     96 % 0.00 in
03:22 73.2 °F 72.0 °F 30.03 in Calm     96 % 0.00 in
03:27 73.2 °F 72.0 °F 30.03 in Calm     96 % 0.00 in
03:32 73.0 °F 71.8 °F 30.03 in Calm     96 % 0.00 in
03:37 72.7 °F 71.4 °F 30.03 in Calm     96 % 0.00 in
03:42 72.7 °F 71.8 °F 30.02 in Calm     97 % 0.00 in
03:47 72.9 °F 72.0 °F 30.02 in Calm     97 % 0.00 in
03:52 72.7 °F 71.8 °F 30.02 in Calm     97 % 0.00 in
03:57 72.7 °F 71.8 °F 30.02 in Calm     97 % 0.00 in
04:02 72.7 °F 71.8 °F 30.02 in Calm     97 % 0.00 in
04:07 72.7 °F 71.8 °F 30.02 in Calm     97 % 0.00 in
04:12 72.5 °F 71.6 °F 30.02 in Calm     97 % 0.00 in
04:17 72.3 °F 71.4 °F 30.02 in Calm     97 % 0.00 in
04:22 72.3 °F 71.4 °F 30.02 in Calm     97 % 0.00 in
04:27 72.3 °F 71.4 °F 30.02 in Calm     97 % 0.00 in
04:37 72.0 °F 71.1 °F 30.02 in Calm     97 % 0.00 in
04:42 72.0 °F 71.4 °F 30.02 in Calm     98 % 0.00 in
04:47 72.0 °F 71.4 °F 30.02 in Calm     98 % 0.00 in
04:53 72.0 °F 71.4 °F 30.03 in Calm     98 % 0.00 in
04:58 72.0 °F 71.4 °F 30.03 in Calm     98 % 0.00 in
05:02 71.8 °F 71.2 °F 30.03 in Calm     98 % 0.00 in
05:07 71.6 °F 71.1 °F 30.03 in Calm     98 % 0.00 in
05:12 71.4 °F 70.9 °F 30.03 in Calm     98 % 0.00 in
05:17 71.4 °F 70.9 °F 30.03 in Calm     98 % 0.00 in
05:22 71.6 °F 71.1 °F 30.03 in Calm     98 % 0.00 in
05:27 71.6 °F 71.1 °F 30.03 in Calm     98 % 0.00 in
05:32 71.4 °F 70.9 °F 30.03 in Calm     98 % 0.00 in
05:37 71.2 °F 70.7 °F 30.03 in Calm     98 % 0.00 in
05:42 71.2 °F 70.7 °F 30.04 in Calm     98 % 0.00 in
05:47 71.2 °F 70.7 °F 30.04 in Calm     98 % 0.00 in
05:52 71.4 °F 70.9 °F 30.04 in Calm     98 % 0.00 in
05:58 71.2 °F 70.7 °F 30.04 in Calm     98 % 0.00 in
06:03 71.2 °F 70.7 °F 30.04 in Calm     98 % 0.00 in
06:07 71.2 °F 70.7 °F 30.04 in Calm     98 % 0.00 in
06:13 71.2 °F 70.7 °F 30.04 in Calm     98 % 0.00 in
06:18 71.2 °F 70.9 °F 30.04 in Calm     99 % 0.00 in
06:23 71.2 °F 70.7 °F 30.04 in Calm     98 % 0.00 in
06:28 71.2 °F 70.9 °F 30.04 in Calm     99 % 0.00 in
06:33 71.4 °F 71.1 °F 30.05 in Calm     99 % 0.00 in
06:38 71.4 °F 71.1 °F 30.05 in Calm     99 % 0.00 in
06:39 71.4 °F 71.1 °F 30.05 in Calm     99 % 0.00 in
06:44 71.4 °F 71.1 °F 30.05 in Calm     99 % 0.00 in
06:49 71.2 °F 70.7 °F 30.05 in Calm     98 % 0.00 in
06:54 71.2 °F 70.9 °F 30.05 in Calm     99 % 0.00 in
06:59 71.2 °F 70.9 °F 30.05 in Calm     99 % 0.00 in
07:04 71.2 °F 70.9 °F 30.05 in Calm     99 % 0.00 in
07:09 71.1 °F 70.7 °F 30.05 in Calm     99 % 0.00 in
07:14 71.1 °F 70.5 °F 30.05 in Calm     98 % 0.00 in
07:19 71.1 °F 70.7 °F 30.05 in Calm     99 % 0.00 in
07:24 71.2 °F 70.9 °F 30.05 in Calm     99 % 0.00 in
07:29 71.1 °F 70.7 °F 30.05 in Calm     99 % 0.00 in
07:34 70.9 °F 70.5 °F 30.05 in Calm     99 % 0.00 in
07:39 70.7 °F 70.3 °F 30.05 in Calm     99 % 0.00 in
07:44 70.9 °F 70.5 °F 30.06 in Calm     99 % 0.00 in
07:49 70.9 °F 70.5 °F 30.05 in Calm     99 % 0.00 in
07:54 71.1 °F 70.7 °F 30.05 in Calm     99 % 0.00 in
07:59 71.4 °F 71.1 °F 30.05 in Calm     99 % 0.00 in
08:04 71.8 °F 71.4 °F 30.05 in Calm     99 % 0.00 in
08:09 72.0 °F 71.6 °F 30.05 in Calm     99 % 0.00 in
08:14 72.1 °F 71.8 °F 30.05 in Calm     99 % 0.00 in
08:19 72.7 °F 72.3 °F 30.05 in Calm     99 % 0.00 in
08:24 73.0 °F 72.7 °F 30.06 in Calm     99 % 0.00 in
08:29 73.8 °F 73.4 °F 30.06 in Calm     99 % 0.00 in
08:34 74.5 °F 74.5 °F 30.06 in Calm     100 % 0.00 in
08:39 74.8 °F 74.5 °F 30.06 in Calm     99 % 0.00 in
08:44 75.6 °F 75.2 °F 30.06 in Calm     99 % 0.00 in
08:49 76.6 °F 76.3 °F 30.06 in Calm     99 % 0.00 in
08:54 77.4 °F 77.0 °F 30.06 in Calm     99 % 0.00 in
08:59 78.1 °F 77.2 °F 30.06 in Calm   1.0 mph 97 % 0.00 in
09:04 78.8 °F 77.5 °F 30.06 in Calm   1.0 mph 96 % 0.00 in
09:09 79.5 °F 77.9 °F 30.06 in ENE 1.0 mph 1.0 mph 95 % 0.00 in
09:14 80.1 °F 77.5 °F 30.06 in Calm   2.0 mph 92 % 0.00 in
09:19 80.8 °F 77.5 °F 30.06 in Calm   2.0 mph 90 % 0.00 in
09:24 81.7 °F 77.7 °F 30.07 in ENE 1.0 mph 2.0 mph 88 % 0.00 in
09:29 82.2 °F 77.5 °F 30.06 in ESE 1.0 mph 2.0 mph 86 % 0.00 in
09:34 82.6 °F 77.5 °F 30.06 in SSE 1.0 mph 4.0 mph 85 % 0.00 in
09:39 82.9 °F 77.5 °F 30.06 in Calm   4.0 mph 84 % 0.00 in
09:44 83.1 °F 77.7 °F 30.07 in ESE 2.0 mph 4.0 mph 84 % 0.00 in
09:49 83.1 °F 77.7 °F 30.06 in ESE 3.0 mph 4.0 mph 84 % 0.00 in
09:54 83.7 °F 78.3 °F 30.06 in SE 1.0 mph 4.0 mph 84 % 0.00 in
09:59 84.0 °F 78.3 °F 30.06 in East 1.0 mph 4.0 mph 83 % 0.00 in
10:04 84.7 °F 78.6 °F 30.07 in Calm   4.0 mph 82 % 0.00 in
10:09 85.3 °F 78.4 °F 30.07 in SE 4.0 mph 4.0 mph 80 % 0.00 in
10:12 85.3 °F 78.1 °F 30.06 in East 2.0 mph 4.0 mph 79 % 0.00 in
10:17 84.6 °F 77.7 °F 30.06 in SE 3.0 mph 5.0 mph 80 % 0.00 in
10:22 84.4 °F 77.5 °F 30.07 in ESE 2.0 mph 5.0 mph 80 % 0.00 in
10:27 84.0 °F 77.5 °F 30.07 in Calm   5.0 mph 81 % 0.00 in
10:32 84.6 °F 78.1 °F 30.06 in ESE 2.0 mph 4.0 mph 81 % 0.00 in
10:37 84.7 °F 77.9 °F 30.06 in South 3.0 mph 5.0 mph 80 % 0.00 in
10:42 84.6 °F 77.7 °F 30.07 in ESE 3.0 mph 6.0 mph 80 % 0.00 in
10:47 84.4 °F 77.5 °F 30.06 in SE 3.0 mph 6.0 mph 80 % 0.00 in
10:52 84.4 °F 77.2 °F 30.06 in SSW 3.0 mph 6.0 mph 79 % 0.00 in
10:57 84.7 °F 77.9 °F 30.06 in South 3.0 mph 6.0 mph 80 % 0.00 in
11:02 84.7 °F 77.5 °F 30.06 in SE 2.0 mph 6.0 mph 79 % 0.00 in
11:07 84.9 °F 76.8 °F 30.06 in SE 2.0 mph 6.0 mph 77 % 0.00 in
11:12 84.7 °F 77.5 °F 30.06 in SSE 2.0 mph 6.0 mph 79 % 0.00 in
11:17 85.1 °F 77.9 °F 30.06 in East 1.0 mph 6.0 mph 79 % 0.00 in
11:22 84.9 °F 77.4 °F 30.06 in ESE 4.0 mph 6.0 mph 78 % 0.00 in
11:27 84.7 °F 77.2 °F 30.06 in Calm   6.0 mph 78 % 0.00 in
11:32 85.1 °F 77.0 °F 30.06 in ESE 5.0 mph 6.0 mph 77 % 0.00 in
11:37 85.6 °F 76.8 °F 30.06 in ESE 2.0 mph 9.0 mph 75 % 0.00 in
11:42 86.4 °F 77.5 °F 30.06 in East 2.0 mph 9.0 mph 75 % 0.00 in
11:47 86.4 °F 77.0 °F 30.06 in South 2.0 mph 9.0 mph 74 % 0.00 in
11:52 87.1 °F 77.7 °F 30.05 in South 5.0 mph 7.0 mph 74 % 0.00 in
11:57 87.1 °F 76.5 °F 30.05 in SSE 2.0 mph 8.0 mph 71 % 0.00 in
12:03 86.9 °F 77.2 °F 30.05 in SSE 4.0 mph 9.0 mph 73 % 0.00 in
12:08 87.4 °F 77.7 °F 30.05 in East 1.0 mph 9.0 mph 73 % 0.00 in
12:13 87.4 °F 77.7 °F 30.05 in SE 2.0 mph 9.0 mph 73 % 0.00 in
12:18 88.3 °F 77.7 °F 30.04 in North 5.0 mph 8.0 mph 71 % 0.00 in
12:23 88.3 °F 77.7 °F 30.04 in SSE 2.0 mph 6.0 mph 71 % 0.00 in
12:28 88.0 °F 77.4 °F 30.04 in Calm   7.0 mph 71 % 0.00 in
12:33 88.2 °F 76.6 °F 30.04 in SSE 2.0 mph 7.0 mph 69 % 0.00 in
12:38 88.7 °F 76.8 °F 30.04 in SSE 1.0 mph 7.0 mph 68 % 0.00 in
12:43 89.4 °F 77.0 °F 30.04 in East 6.0 mph 7.0 mph 67 % 0.00 in
12:48 88.9 °F 76.5 °F 30.03 in East 3.0 mph 7.0 mph 67 % 0.00 in
12:53 88.0 °F 76.1 °F 30.03 in East 2.0 mph 7.0 mph 68 % 0.00 in
12:58 88.2 °F 77.2 °F 30.03 in ESE 3.0 mph 9.0 mph 70 % 0.00 in
13:03 88.9 °F 77.9 °F 30.02 in SSE 1.0 mph 9.0 mph 70 % 0.00 in
13:08 89.8 °F 77.7 °F 30.02 in East 4.0 mph 9.0 mph 68 % 0.00 in
13:13 89.4 °F 77.0 °F 30.02 in SSE 7.0 mph 7.0 mph 67 % 0.00 in
13:18 89.4 °F 76.6 °F 30.01 in SSE 4.0 mph 7.0 mph 66 % 0.00 in
13:23 90.0 °F 77.0 °F 30.01 in ESE 4.0 mph 7.0 mph 66 % 0.00 in
13:28 90.3 °F 77.0 °F 30.01 in ESE 4.0 mph 9.0 mph 65 % 0.00 in
13:33 90.3 °F 77.0 °F 30.01 in South 7.0 mph 9.0 mph 65 % 0.00 in
13:38 90.7 °F 77.4 °F 30.00 in East 5.0 mph 10.0 mph 65 % 0.00 in
13:43 90.1 °F 76.3 °F 30.00 in ENE 3.0 mph 10.0 mph 64 % 0.00 in
13:48 89.2 °F 75.9 °F 30.00 in SE 3.0 mph 10.0 mph 65 % 0.00 in
13:53 88.5 °F 75.7 °F 29.99 in SSE 4.0 mph 8.0 mph 66 % 0.00 in
13:58 88.3 °F 75.6 °F 29.99 in East 4.0 mph 8.0 mph 66 % 0.00 in
14:03 88.2 °F 75.7 °F 29.99 in SSE 2.0 mph 8.0 mph 67 % 0.00 in
14:08 88.5 °F 76.1 °F 29.99 in ENE 6.0 mph 8.0 mph 67 % 0.00 in
14:09 88.5 °F 75.2 °F 29.99 in SE 3.0 mph 8.0 mph 65 % 0.00 in
14:14 88.9 °F 75.6 °F 29.98 in ESE 4.0 mph 8.0 mph 65 % 0.00 in
14:19 89.2 °F 75.9 °F 29.98 in ESE 4.0 mph 8.0 mph 65 % 0.00 in
14:24 89.2 °F 75.4 °F 29.98 in East 5.0 mph 7.0 mph 64 % 0.00 in
14:29 89.4 °F 76.1 °F 29.97 in East 4.0 mph 7.0 mph 65 % 0.00 in
14:34 90.0 °F 75.7 °F 29.97 in ESE 6.0 mph 7.0 mph 63 % 0.00 in
14:39 90.3 °F 75.6 °F 29.97 in NNE 6.0 mph 9.0 mph 62 % 0.00 in
14:44 90.9 °F 76.5 °F 29.96 in East 2.0 mph 9.0 mph 63 % 0.00 in
14:49 90.9 °F 76.1 °F 29.96 in ESE 5.0 mph 9.0 mph 62 % 0.00 in
14:54 90.5 °F 75.2 °F 29.96 in South 1.0 mph 14.0 mph 61 % 0.00 in
14:59 91.2 °F 74.8 °F 29.96 in South 3.0 mph 14.0 mph 59 % 0.00 in
15:04 91.8 °F 75.9 °F 29.96 in ESE 4.0 mph 14.0 mph 60 % 0.00 in
15:09 91.6 °F 75.2 °F 29.96 in South 4.0 mph 8.0 mph 59 % 0.00 in
15:14 90.5 °F 74.7 °F 29.96 in SE 4.0 mph 9.0 mph 60 % 0.00 in
15:19 90.7 °F 75.4 °F 29.96 in SE 7.0 mph 9.0 mph 61 % 0.00 in
15:24 90.3 °F 75.6 °F 29.96 in South 3.0 mph 9.0 mph 62 % 0.00 in
15:29 90.7 °F 75.4 °F 29.96 in ESE 3.0 mph 9.0 mph 61 % 0.00 in
15:34 90.1 °F 74.8 °F 29.95 in SE 4.0 mph 10.0 mph 61 % 0.00 in
15:39 89.4 °F 75.2 °F 29.95 in South 4.0 mph 10.0 mph 63 % 0.00 in
15:44 89.2 °F 75.4 °F 29.95 in ESE 3.0 mph 10.0 mph 64 % 0.00 in
15:50 89.4 °F 75.2 °F 29.95 in SE 5.0 mph 9.0 mph 63 % 0.00 in
15:55 89.8 °F 75.9 °F 29.95 in SE 7.0 mph 8.0 mph 64 % 0.00 in
16:00 90.0 °F 75.2 °F 29.95 in SE 5.0 mph 9.0 mph 62 % 0.00 in
16:05 89.4 °F 75.2 °F 29.95 in ESE 4.0 mph 10.0 mph 63 % 0.00 in
16:10 89.8 °F 75.6 °F 29.95 in East 5.0 mph 11.0 mph 63 % 0.00 in
16:15 90.0 °F 75.7 °F 29.95 in SE 5.0 mph 11.0 mph 63 % 0.00 in
16:20 90.0 °F 74.7 °F 29.95 in ESE 4.0 mph 11.0 mph 61 % 0.00 in
16:25 90.0 °F 74.7 °F 29.95 in SSE 5.0 mph 10.0 mph 61 % 0.00 in
16:30 90.3 °F 74.5 °F 29.95 in South 5.0 mph 10.0 mph 60 % 0.00 in
16:35 90.1 °F 74.3 °F 29.95 in ESE 5.0 mph 10.0 mph 60 % 0.00 in
16:40 90.1 °F 74.3 °F 29.95 in SSE 5.0 mph 10.0 mph 60 % 0.00 in
16:45 90.0 °F 74.1 °F 29.95 in SSE 1.0 mph 9.0 mph 60 % 0.00 in
16:50 90.0 °F 73.8 °F 29.94 in SE 3.0 mph 9.0 mph 59 % 0.00 in
16:51 90.0 °F 73.8 °F 29.95 in East 6.0 mph 9.0 mph 59 % 0.00 in
16:56 89.8 °F 73.6 °F 29.95 in East 6.0 mph 10.0 mph 59 % 0.00 in
17:01 89.8 °F 73.6 °F 29.95 in SSW 5.0 mph 10.0 mph 59 % 0.00 in
17:06 89.8 °F 74.1 °F 29.95 in SW 6.0 mph 10.0 mph 60 % 0.00 in
17:11 89.8 °F 73.6 °F 29.95 in East 7.0 mph 10.0 mph 59 % 0.00 in
17:16 89.4 °F 73.2 °F 29.95 in SSE 3.0 mph 10.0 mph 59 % 0.00 in
17:21 89.2 °F 73.9 °F 29.95 in ESE 4.0 mph 10.0 mph 61 % 0.00 in
17:26 88.9 °F 74.1 °F 29.95 in East 3.0 mph 10.0 mph 62 % 0.00 in
17:31 88.7 °F 74.5 °F 29.95 in ENE 5.0 mph 9.0 mph 63 % 0.00 in
17:36 88.5 °F 74.3 °F 29.95 in East 2.0 mph 9.0 mph 63 % 0.00 in
17:41 88.2 °F 74.5 °F 29.95 in ESE 3.0 mph 9.0 mph 64 % 0.00 in
17:46 88.0 °F 74.3 °F 29.95 in SE 5.0 mph 10.0 mph 64 % 0.00 in
17:51 87.6 °F 74.3 °F 29.95 in ESE 4.0 mph 10.0 mph 65 % 0.00 in
17:56 87.4 °F 74.3 °F 29.95 in East 4.0 mph 11.0 mph 65 % 0.00 in
18:01 87.3 °F 74.1 °F 29.95 in ESE 4.0 mph 13.0 mph 65 % 0.00 in
18:06 87.1 °F 74.3 °F 29.95 in SE 3.0 mph 13.0 mph 66 % 0.00 in
18:11 86.9 °F 74.1 °F 29.95 in ESE 6.0 mph 13.0 mph 66 % 0.00 in
18:16 86.7 °F 74.5 °F 29.95 in SSE 6.0 mph 11.0 mph 67 % 0.00 in
18:21 86.4 °F 74.1 °F 29.95 in SE 4.0 mph 11.0 mph 67 % 0.00 in
18:26 86.2 °F 74.8 °F 29.95 in SE 5.0 mph 11.0 mph 69 % 0.00 in
18:31 85.8 °F 74.8 °F 29.95 in SE 3.0 mph 10.0 mph 70 % 0.00 in
18:36 85.6 °F 75.2 °F 29.96 in ENE 4.0 mph 10.0 mph 71 % 0.00 in
18:41 85.5 °F 75.0 °F 29.96 in SE 3.0 mph 9.0 mph 71 % 0.00 in
18:46 85.1 °F 74.7 °F 29.96 in SE 5.0 mph 9.0 mph 71 % 0.00 in
18:51 84.9 °F 74.5 °F 29.96 in ESE 4.0 mph 9.0 mph 71 % 0.00 in
18:56 84.6 °F 74.5 °F 29.96 in East 5.0 mph 9.0 mph 72 % 0.00 in
19:01 84.4 °F 74.3 °F 29.96 in ESE 3.0 mph 9.0 mph 72 % 0.00 in
19:06 84.2 °F 74.1 °F 29.96 in SSE 2.0 mph 8.0 mph 72 % 0.00 in
19:11 84.0 °F 73.9 °F 29.96 in SSE 3.0 mph 8.0 mph 72 % 0.00 in
19:16 83.8 °F 73.8 °F 29.97 in ESE 2.0 mph 8.0 mph 72 % 0.00 in
19:21 83.7 °F 73.2 °F 29.96 in ESE 4.0 mph 8.0 mph 71 % 0.00 in
19:26 83.5 °F 72.7 °F 29.97 in SE 5.0 mph 8.0 mph 70 % 0.00 in
19:31 83.5 °F 72.7 °F 29.97 in SE 4.0 mph 9.0 mph 70 % 0.00 in
19:36 83.1 °F 72.0 °F 29.97 in SE 5.0 mph 9.0 mph 69 % 0.00 in
19:41 82.9 °F 71.2 °F 29.97 in SE 2.0 mph 9.0 mph 68 % 0.00 in
19:46 82.8 °F 71.6 °F 29.97 in ESE 1.0 mph 7.0 mph 69 % 0.00 in
19:51 82.6 °F 71.4 °F 29.97 in ESE 1.0 mph 7.0 mph 69 % 0.00 in
19:56 82.4 °F 71.2 °F 29.98 in SE 1.0 mph 7.0 mph 69 % 0.00 in
20:01 82.2 °F 71.1 °F 29.98 in ESE 3.0 mph 7.0 mph 69 % 0.00 in
20:06 82.0 °F 70.9 °F 29.98 in SE 1.0 mph 5.0 mph 69 % 0.00 in
20:11 81.9 °F 70.7 °F 29.99 in ESE 1.0 mph 5.0 mph 69 % 0.00 in
20:16 81.7 °F 70.5 °F 29.99 in ESE 2.0 mph 5.0 mph 69 % 0.00 in
20:21 81.5 °F 70.3 °F 29.99 in East 2.0 mph 5.0 mph 69 % 0.00 in
20:27 81.3 °F 70.2 °F 29.99 in SE 2.0 mph 5.0 mph 69 % 0.00 in
20:32 81.1 °F 70.3 °F 30.00 in East 2.0 mph 5.0 mph 70 % 0.00 in
20:37 81.0 °F 70.7 °F 30.00 in East 1.0 mph 5.0 mph 71 % 0.00 in
20:42 80.8 °F 70.9 °F 30.00 in ESE 1.0 mph 5.0 mph 72 % 0.00 in
20:47 80.6 °F 71.6 °F 30.01 in ESE 4.0 mph 4.0 mph 74 % 0.00 in
20:52 80.4 °F 71.8 °F 30.01 in SE 2.0 mph 5.0 mph 75 % 0.00 in
20:57 80.2 °F 71.6 °F 30.01 in SE 1.0 mph 5.0 mph 75 % 0.00 in
21:02 80.2 °F 72.0 °F 30.01 in East 2.0 mph 5.0 mph 76 % 0.00 in
21:07 80.1 °F 72.1 °F 30.01 in ESE 3.0 mph 4.0 mph 77 % 0.00 in
21:12 79.9 °F 72.0 °F 30.01 in SSE 1.0 mph 4.0 mph 77 % 0.00 in
21:17 79.9 °F 72.3 °F 30.01 in SE 1.0 mph 4.0 mph 78 % 0.00 in
21:22 79.7 °F 72.1 °F 30.01 in SE 2.0 mph 3.0 mph 78 % 0.00 in
21:27 79.5 °F 72.5 °F 30.01 in ESE 1.0 mph 3.0 mph 79 % 0.00 in
21:32 79.3 °F 72.3 °F 30.02 in Calm   3.0 mph 79 % 0.00 in
21:37 79.3 °F 72.7 °F 30.02 in Calm   3.0 mph 80 % 0.00 in
21:42 79.2 °F 72.5 °F 30.01 in ESE 1.0 mph 2.0 mph 80 % 0.00 in
21:47 79.0 °F 72.7 °F 30.01 in Calm   2.0 mph 81 % 0.00 in
21:52 78.6 °F 72.7 °F 30.02 in Calm   2.0 mph 82 % 0.00 in
21:57 78.4 °F 72.5 °F 30.02 in Calm   2.0 mph 82 % 0.00 in
22:02 78.4 °F 72.9 °F 30.02 in Calm   1.0 mph 83 % 0.00 in
22:07 78.3 °F 72.7 °F 30.01 in Calm   1.0 mph 83 % 0.00 in
22:12 78.1 °F 72.5 °F 30.01 in Calm   1.0 mph 83 % 0.00 in
22:17 77.7 °F 72.5 °F 30.01 in Calm   1.0 mph 84 % 0.00 in
22:22 77.4 °F 72.5 °F 30.02 in Calm   1.0 mph 85 % 0.00 in
22:27 77.0 °F 72.5 °F 30.01 in Calm   1.0 mph 86 % 0.00 in
22:32 76.8 °F 72.7 °F 30.01 in Calm   1.0 mph 87 % 0.00 in
22:37 76.6 °F 72.5 °F 30.01 in Calm   1.0 mph 87 % 0.00 in
22:42 76.5 °F 72.7 °F 30.01 in Calm   1.0 mph 88 % 0.00 in
22:47 76.5 °F 72.7 °F 30.01 in Calm   1.0 mph 88 % 0.00 in
22:52 76.5 °F 73.0 °F 30.01 in Calm   1.0 mph 89 % 0.00 in
22:57 76.3 °F 72.9 °F 30.01 in Calm   1.0 mph 89 % 0.00 in
23:02 76.3 °F 72.9 °F 30.01 in Calm   1.0 mph 89 % 0.00 in
23:07 76.1 °F 72.7 °F 30.01 in Calm   1.0 mph 89 % 0.00 in
23:12 75.9 °F 72.5 °F 30.01 in Calm   1.0 mph 89 % 0.00 in
23:17 75.7 °F 72.7 °F 30.01 in Calm     90 % 0.00 in
23:22 75.6 °F 72.5 °F 30.01 in Calm     90 % 0.00 in
23:27 75.4 °F 72.3 °F 30.01 in Calm     90 % 0.00 in
23:32 74.8 °F 71.8 °F 30.01 in Calm     90 % 0.00 in
23:37 74.7 °F 71.8 °F 30.01 in Calm     91 % 0.00 in
23:42 74.5 °F 71.6 °F 30.01 in Calm     91 % 0.00 in
23:47 74.1 °F 71.6 °F 30.01 in Calm     92 % 0.00 in
23:52 74.1 °F 72.0 °F 30.01 in Calm     93 % 0.00 in
23:57 73.9 °F 71.8 °F 30.01 in Calm     93 % 0.00 in
Spring, Texas: Villages of Bridgestone
Compliments of Weather Underground - 2.75 mb

Script developed by  Jim McMurry - jmcmurry@mwt.net Adapted for the template by  Wim van der Kuil - Leuven-Template.eu

You find our weather info also at:

UK Metoffice

WeatherCloud

Weather Underground

Mid-South Weather Network

AWEKAS

Citizen Weather Observer Program (CWOP)

HAMweather, WeatherForYou, PWS Weather

Equipment we use:

Weather-station
Davis Vantage Vue

Weather-program
Meteohub

Weather-server
Debian 7.9 x86 (Guest)

Provider
DreamHost

Davis Vantage Vue

Meteohub

Debian 7.9 x86 (Guest)

DreamHost